createdAt,value
2017-02-15T00:01:05.992Z,1.42
2017-02-15T00:06:03.241Z,1.35
2017-02-15T00:10:59.182Z,1.38
2017-02-15T00:15:55.801Z,1.23
2017-02-15T00:20:51.859Z,1.13
2017-02-15T00:25:48.339Z,1.17
2017-02-15T00:30:44.883Z,1.10
2017-02-15T00:35:41.079Z,0.95
2017-02-15T00:40:37.247Z,0.92
2017-02-15T00:45:33.346Z,0.96
2017-02-15T00:50:29.679Z,0.86
2017-02-15T00:55:25.964Z,0.91
2017-02-15T01:00:22.363Z,0.92
2017-02-15T01:05:18.189Z,0.91
2017-02-15T01:10:14.768Z,0.78
2017-02-15T01:15:11.019Z,0.80
2017-02-15T01:20:07.313Z,0.91
2017-02-15T01:25:03.567Z,0.87
2017-02-15T01:30:00.315Z,0.83
2017-02-15T01:34:56.531Z,0.74
2017-02-15T01:39:52.691Z,0.66
2017-02-15T01:44:49.765Z,0.70
2017-02-15T01:49:46.249Z,0.81
2017-02-15T01:54:43.210Z,0.69
2017-02-15T01:59:39.588Z,0.76
2017-02-15T02:04:35.728Z,0.83
2017-02-15T02:09:32.028Z,0.84
2017-02-15T02:14:27.967Z,0.74
2017-02-15T02:19:24.624Z,0.62
2017-02-15T02:24:21.000Z,0.52
2017-02-15T02:29:17.492Z,0.46
2017-02-15T02:34:14.742Z,0.37
2017-02-15T02:39:10.764Z,0.31
2017-02-15T02:44:07.775Z,0.23
2017-02-15T02:49:04.222Z,0.25
2017-02-15T02:54:00.572Z,0.31
2017-02-15T02:58:56.882Z,0.23
2017-02-15T03:03:52.940Z,0.31
2017-02-15T03:08:49.500Z,0.18
2017-02-15T03:13:45.919Z,0.29
2017-02-15T03:18:43.120Z,0.23
2017-02-15T03:23:39.797Z,0.26
2017-02-15T03:28:35.898Z,0.22
2017-02-15T03:33:32.159Z,0.23
2017-02-15T03:38:28.596Z,0.25
2017-02-15T03:43:25.107Z,0.29
2017-02-15T03:48:21.616Z,0.23
2017-02-15T03:53:19.252Z,0.18
2017-02-15T03:58:15.361Z,0.10
2017-02-15T04:03:11.914Z,0.08
2017-02-15T04:08:08.116Z,0.05
2017-02-15T04:13:04.494Z,0.08
2017-02-15T04:18:00.993Z,0.04
2017-02-15T04:22:57.376Z,0.07
2017-02-15T04:27:53.514Z,0.00
2017-02-15T04:32:49.732Z,0.16
2017-02-15T04:37:46.042Z,0.05
2017-02-15T04:42:42.292Z,-0.06
2017-02-15T04:47:38.670Z,0.05
2017-02-15T04:52:35.016Z,0.04
2017-02-15T04:57:31.163Z,-0.06
2017-02-15T05:02:28.431Z,-0.25
2017-02-15T05:07:24.949Z,-0.21
2017-02-15T05:12:21.111Z,-0.29
2017-02-15T05:17:17.512Z,-0.20
2017-02-15T05:22:13.873Z,-0.32
2017-02-15T05:27:10.914Z,-0.15
2017-02-15T05:32:07.076Z,-0.13
2017-02-15T05:37:04.878Z,-0.18
2017-02-15T05:42:00.864Z,-0.06
2017-02-15T05:46:58.115Z,-0.08
2017-02-15T05:51:54.911Z,-0.08
2017-02-15T05:56:50.935Z,0.00
2017-02-15T06:01:47.988Z,0.03
2017-02-15T06:06:44.343Z,-0.32
2017-02-15T06:11:40.763Z,-0.15
2017-02-15T06:16:37.039Z,0.01
2017-02-15T06:21:33.793Z,0.03
2017-02-15T06:26:30.204Z,0.08
2017-02-15T06:31:26.502Z,-0.02
2017-02-15T06:36:23.144Z,0.03
2017-02-15T06:41:19.909Z,-0.15
2017-02-15T06:46:17.046Z,-0.13
2017-02-15T06:51:13.524Z,-0.10
2017-02-15T06:56:10.043Z,0.00
2017-02-15T07:01:06.508Z,-0.06
2017-02-15T07:06:03.678Z,-0.02
2017-02-15T07:11:00.055Z,0.01
2017-02-15T07:15:57.361Z,0.10
2017-02-15T07:20:53.441Z,0.19
2017-02-15T07:25:50.665Z,0.31
2017-02-15T07:30:47.021Z,0.32
2017-02-15T07:35:43.607Z,0.40
2017-02-15T07:40:40.688Z,0.59
2017-02-15T07:45:37.197Z,0.87
2017-02-15T07:50:34.275Z,1.04
2017-02-15T07:55:30.847Z,1.22
2017-02-15T08:00:27.399Z,1.45
2017-02-15T08:05:23.844Z,1.66
2017-02-15T08:10:20.686Z,2.00
2017-02-15T08:15:17.263Z,1.99
2017-02-15T08:20:13.760Z,2.18
2017-02-15T08:25:10.245Z,2.32
2017-02-15T08:30:06.885Z,2.53
2017-02-15T08:35:03.331Z,2.79
2017-02-15T08:40:00.292Z,2.89
2017-02-15T08:44:56.559Z,2.86
2017-02-15T08:49:53.567Z,3.32
2017-02-15T08:54:52.727Z,3.63
2017-02-15T08:59:48.637Z,3.95
2017-02-15T09:04:45.181Z,4.16
2017-02-15T09:09:41.897Z,4.45
2017-02-15T09:14:38.480Z,5.04
2017-02-15T09:19:35.197Z,5.25
2017-02-15T09:24:32.354Z,5.61
2017-02-15T09:29:28.996Z,5.73
2017-02-15T09:34:25.621Z,6.08
2017-02-15T09:39:22.671Z,6.42
2017-02-15T09:44:19.352Z,7.18
2017-02-15T09:49:17.294Z,7.79
2017-02-15T09:54:13.868Z,7.97
2017-02-15T09:59:10.855Z,7.98
2017-02-15T10:04:07.608Z,8.55
2017-02-15T10:09:04.223Z,9.36
2017-02-15T10:14:01.108Z,8.99
2017-02-15T10:18:59.638Z,9.08
2017-02-15T10:23:55.677Z,9.22
2017-02-15T10:28:53.326Z,9.14
2017-02-15T10:33:49.786Z,9.80
2017-02-15T10:38:46.609Z,10.12
2017-02-15T10:43:43.240Z,9.86
2017-02-15T10:48:39.871Z,10.46
2017-02-15T10:53:36.693Z,10.82
2017-02-15T10:58:33.510Z,10.84
2017-02-15T11:03:30.234Z,12.25
2017-02-15T11:08:27.350Z,12.20
2017-02-15T11:13:24.760Z,11.88
2017-02-15T11:18:22.591Z,12.62
2017-02-15T11:23:19.500Z,13.23
2017-02-15T11:28:16.817Z,13.87
2017-02-15T11:33:13.562Z,14.28
2017-02-15T11:38:10.371Z,14.29
2017-02-15T11:43:08.310Z,14.37
2017-02-15T11:48:04.881Z,15.75
2017-02-15T11:53:02.025Z,15.27
2017-02-15T11:57:58.356Z,14.94
2017-02-15T12:02:55.010Z,14.51
2017-02-15T12:07:52.595Z,15.47
2017-02-15T12:12:50.153Z,15.35
2017-02-15T12:17:46.801Z,14.96
2017-02-15T12:22:43.577Z,13.95
2017-02-15T12:27:39.882Z,13.71
2017-02-15T12:32:36.360Z,13.77
2017-02-15T12:37:32.614Z,14.25
2017-02-15T12:42:29.326Z,13.99
2017-02-15T12:47:26.182Z,14.12
2017-02-15T12:52:22.471Z,14.17
2017-02-15T12:57:19.963Z,14.88
2017-02-15T13:02:16.216Z,14.68
2017-02-15T13:07:13.198Z,14.85
2017-02-15T13:12:09.738Z,14.33
2017-02-15T13:17:06.882Z,13.77
2017-02-15T13:22:03.244Z,13.49
2017-02-15T13:27:02.449Z,13.60
2017-02-15T13:31:58.297Z,13.37
2017-02-15T13:36:55.018Z,13.87
2017-02-15T13:41:51.735Z,13.60
2017-02-15T13:46:48.262Z,13.86
2017-02-15T13:51:45.901Z,13.99
2017-02-15T13:56:42.061Z,13.96
2017-02-15T14:01:38.939Z,13.79
2017-02-15T14:06:35.583Z,15.03
2017-02-15T14:11:32.558Z,16.61
2017-02-15T14:16:29.623Z,15.49
2017-02-15T14:21:26.101Z,15.10
2017-02-15T14:26:22.605Z,14.47
2017-02-15T14:31:19.028Z,14.25
2017-02-15T14:36:15.342Z,14.33
2017-02-15T14:41:11.844Z,14.69
2017-02-15T14:46:09.431Z,14.48
2017-02-15T14:51:06.009Z,14.45
2017-02-15T14:56:02.665Z,14.28
2017-02-15T15:00:59.291Z,14.08
2017-02-15T15:05:55.698Z,14.26
2017-02-15T15:10:52.485Z,14.07
2017-02-15T15:15:48.860Z,13.85
2017-02-15T15:20:45.365Z,13.30
2017-02-15T15:25:42.400Z,13.01
2017-02-15T15:30:38.428Z,12.93
2017-02-15T15:35:35.124Z,12.80
2017-02-15T15:40:31.573Z,12.85
2017-02-15T15:45:27.579Z,12.58
2017-02-15T15:50:24.183Z,12.42
2017-02-15T15:55:20.486Z,12.20
2017-02-15T16:00:16.686Z,12.25
2017-02-15T16:05:13.466Z,12.17
2017-02-15T16:10:09.703Z,11.88
2017-02-15T16:15:06.191Z,11.63
2017-02-15T16:20:02.606Z,11.45
2017-02-15T16:24:59.441Z,11.50
2017-02-15T16:29:55.944Z,11.17
2017-02-15T16:34:53.066Z,10.78
2017-02-15T16:39:49.387Z,10.48
2017-02-15T16:44:46.706Z,10.38
2017-02-15T16:49:42.500Z,10.09
2017-02-15T16:54:39.341Z,10.01
2017-02-15T16:59:35.563Z,9.94
2017-02-15T17:04:31.681Z,9.83
2017-02-15T17:09:28.348Z,9.99
2017-02-15T17:14:25.563Z,10.02
2017-02-15T17:19:23.230Z,10.13
2017-02-15T17:24:19.583Z,9.99
2017-02-15T17:29:15.965Z,10.04
2017-02-15T17:34:12.420Z,9.91
2017-02-15T17:39:08.720Z,10.13
2017-02-15T17:44:06.623Z,10.23
2017-02-15T17:49:03.143Z,10.01
2017-02-15T17:53:59.544Z,9.54
2017-02-15T17:58:56.653Z,9.14
2017-02-15T18:03:52.547Z,8.89
2017-02-15T18:08:48.928Z,8.89
2017-02-15T18:13:45.139Z,9.19
2017-02-15T18:18:42.387Z,9.76
2017-02-15T18:23:39.233Z,9.89
2017-02-15T18:28:36.048Z,9.94
2017-02-15T18:33:32.812Z,9.89
2017-02-15T18:38:29.367Z,9.79
2017-02-15T18:43:25.718Z,9.61
2017-02-15T18:48:21.827Z,9.44
2017-02-15T18:53:17.986Z,9.21
2017-02-15T18:58:14.869Z,9.10
2017-02-15T19:03:10.807Z,8.94
2017-02-15T19:08:07.457Z,8.78
2017-02-15T19:13:04.087Z,8.63
2017-02-15T19:18:00.549Z,8.58
2017-02-15T19:22:57.806Z,8.55
2017-02-15T19:27:54.479Z,8.53
2017-02-15T19:32:51.115Z,8.60
2017-02-15T19:37:47.133Z,8.60
2017-02-15T19:42:43.810Z,8.31
2017-02-15T19:47:40.216Z,8.37
2017-02-15T19:52:37.366Z,8.33
2017-02-15T19:57:33.173Z,8.31
2017-02-15T20:02:29.570Z,8.12
2017-02-15T20:07:26.005Z,8.12
2017-02-15T20:12:22.373Z,7.97
2017-02-15T20:17:19.201Z,7.80
2017-02-15T20:22:15.675Z,7.82
2017-02-15T20:27:12.472Z,7.79
2017-02-15T20:32:09.092Z,7.70
2017-02-15T20:37:05.533Z,7.80
2017-02-15T20:42:01.993Z,7.90
2017-02-15T20:46:58.585Z,7.91
2017-02-15T20:51:55.071Z,8.09
2017-02-15T20:56:51.580Z,8.09
2017-02-15T21:01:48.614Z,8.15
2017-02-15T21:06:45.517Z,8.24
2017-02-15T21:11:41.894Z,8.12
2017-02-15T21:16:39.161Z,8.16
2017-02-15T21:21:35.898Z,8.18
2017-02-15T21:26:32.294Z,8.26
2017-02-15T21:31:28.701Z,8.23
2017-02-15T21:36:25.233Z,8.33
2017-02-15T21:41:21.751Z,8.31
2017-02-15T21:46:18.266Z,8.26
2017-02-15T21:51:14.893Z,8.31
2017-02-15T21:56:11.496Z,8.28
2017-02-15T22:01:07.675Z,8.44
2017-02-15T22:06:04.378Z,8.48
2017-02-15T22:11:00.978Z,8.61
2017-02-15T22:15:57.159Z,8.84
2017-02-15T22:20:53.915Z,8.89
2017-02-15T22:25:50.657Z,8.99
2017-02-15T22:30:46.911Z,9.18
2017-02-15T22:35:43.618Z,9.14
2017-02-15T22:40:40.688Z,9.25
2017-02-15T22:45:37.676Z,9.32
2017-02-15T22:50:34.176Z,9.25
2017-02-15T22:55:31.938Z,9.19
2017-02-15T23:00:28.419Z,9.16
2017-02-15T23:05:25.077Z,9.02
2017-02-15T23:10:21.747Z,9.03
2017-02-15T23:15:17.997Z,8.85
2017-02-15T23:20:14.678Z,8.71
2017-02-15T23:25:11.178Z,8.56
2017-02-15T23:30:07.460Z,8.53
2017-02-15T23:35:03.886Z,8.37
2017-02-15T23:40:00.102Z,8.37
2017-02-15T23:44:57.018Z,8.30
2017-02-15T23:49:53.327Z,8.23
2017-02-15T23:54:49.738Z,8.15
2017-02-15T23:59:46.176Z,8.12
